sensor_id;sensor_type;location;lat;lon;timestamp;temperature;humidity
1379;DHT22;683;48.738;9.226;2022-09-21T00:01:15;5.80;99.90
1379;DHT22;683;48.738;9.226;2022-09-21T00:03:44;5.70;99.90
1379;DHT22;683;48.738;9.226;2022-09-21T00:06:13;5.70;99.90
1379;DHT22;683;48.738;9.226;2022-09-21T00:08:41;5.60;99.90
1379;DHT22;683;48.738;9.226;2022-09-21T00:11:11;5.60;99.90
1379;DHT22;683;48.738;9.226;2022-09-21T00:13:40;5.50;99.90
1379;DHT22;683;48.738;9.226;2022-09-21T00:16:11;5.50;99.90
1379;DHT22;683;48.738;9.226;2022-09-21T00:18:38;5.40;99.90
1379;DHT22;683;48.738;9.226;2022-09-21T00:21:07;5.40;99.90
1379;DHT22;683;48.738;9.226;2022-09-21T00:23:35;5.40;99.90
1379;DHT22;683;48.738;9.226;2022-09-21T00:26:04;5.30;99.90
1379;DHT22;683;48.738;9.226;2022-09-21T00:28:32;5.30;99.90
1379;DHT22;683;48.738;9.226;2022-09-21T00:31:02;5.20;99.90
1379;DHT22;683;48.738;9.226;2022-09-21T00:33:30;5.20;99.90
1379;DHT22;683;48.738;9.226;2022-09-21T00:36:01;5.20;99.90
1379;DHT22;683;48.738;9.226;2022-09-21T00:38:30;5.20;99.90
1379;DHT22;683;48.738;9.226;2022-09-21T00:40:57;5.20;99.90
1379;DHT22;683;48.738;9.226;2022-09-21T00:43:25;5.20;99.90
1379;DHT22;683;48.738;9.226;2022-09-21T00:45:58;5.20;99.90
1379;DHT22;683;48.738;9.226;2022-09-21T00:48:28;5.10;99.90
1379;DHT22;683;48.738;9.226;2022-09-21T00:50:58;5.10;99.90
1379;DHT22;683;48.738;9.226;2022-09-21T00:53:28;5.10;99.90
1379;DHT22;683;48.738;9.226;2022-09-21T00:55:57;5.10;99.90
1379;DHT22;683;48.738;9.226;2022-09-21T00:58:28;5.10;99.90
1379;DHT22;683;48.738;9.226;2022-09-21T01:00:58;5.10;99.90
1379;DHT22;683;48.738;9.226;2022-09-21T01:03:29;5.10;99.90
1379;DHT22;683;48.738;9.226;2022-09-21T01:05:57;5.10;99.90
1379;DHT22;683;48.738;9.226;2022-09-21T01:08:25;5.10;99.90
1379;DHT22;683;48.738;9.226;2022-09-21T01:11:19;5.00;99.90
1379;DHT22;683;48.738;9.226;2022-09-21T01:14:02;5.00;99.90
1379;DHT22;683;48.738;9.226;2022-09-21T01:16:36;5.00;99.90
1379;DHT22;683;48.738;9.226;2022-09-21T01:19:14;5.00;99.90
1379;DHT22;683;48.738;9.226;2022-09-21T01:21:52;5.00;99.90
1379;DHT22;683;48.738;9.226;2022-09-21T01:24:41;5.00;99.90
1379;DHT22;683;48.738;9.226;2022-09-21T01:30:19;5.00;99.90
1379;DHT22;683;48.738;9.226;2022-09-21T01:32:51;5.00;99.90
1379;DHT22;683;48.738;9.226;2022-09-21T01:35:24;5.00;99.90
1379;DHT22;683;48.738;9.226;2022-09-21T01:37:56;5.00;99.90
1379;DHT22;683;48.738;9.226;2022-09-21T01:40:29;5.00;99.90
1379;DHT22;683;48.738;9.226;2022-09-21T01:43:00;5.00;99.90
1379;DHT22;683;48.738;9.226;2022-09-21T01:45:32;5.00;99.90
1379;DHT22;683;48.738;9.226;2022-09-21T01:48:01;5.00;99.90
1379;DHT22;683;48.738;9.226;2022-09-21T01:50:32;5.00;99.90
1379;DHT22;683;48.738;9.226;2022-09-21T01:53:03;5.00;99.90
1379;DHT22;683;48.738;9.226;2022-09-21T01:55:35;5.00;99.90
1379;DHT22;683;48.738;9.226;2022-09-21T01:58:10;5.00;99.90
1379;DHT22;683;48.738;9.226;2022-09-21T02:00:41;4.90;99.90
1379;DHT22;683;48.738;9.226;2022-09-21T02:03:13;4.90;99.90
1379;DHT22;683;48.738;9.226;2022-09-21T02:05:42;4.80;99.90
1379;DHT22;683;48.738;9.226;2022-09-21T02:08:10;4.80;99.90
1379;DHT22;683;48.738;9.226;2022-09-21T02:10:42;4.80;99.90
1379;DHT22;683;48.738;9.226;2022-09-21T02:13:11;4.90;99.90
1379;DHT22;683;48.738;9.226;2022-09-21T02:15:50;4.80;99.90
1379;DHT22;683;48.738;9.226;2022-09-21T02:18:34;4.90;99.90
1379;DHT22;683;48.738;9.226;2022-09-21T02:21:10;4.80;99.90
1379;DHT22;683;48.738;9.226;2022-09-21T02:23:44;4.80;99.90
1379;DHT22;683;48.738;9.226;2022-09-21T02:26:18;4.80;99.90
1379;DHT22;683;48.738;9.226;2022-09-21T02:28:50;4.70;99.90
1379;DHT22;683;48.738;9.226;2022-09-21T02:31:28;4.70;99.90
1379;DHT22;683;48.738;9.226;2022-09-21T02:34:01;4.60;99.90
1379;DHT22;683;48.738;9.226;2022-09-21T02:36:32;4.60;99.90
1379;DHT22;683;48.738;9.226;2022-09-21T02:39:08;4.50;99.90
1379;DHT22;683;48.738;9.226;2022-09-21T02:41:39;4.50;99.90
1379;DHT22;683;48.738;9.226;2022-09-21T02:44:13;4.50;99.90
1379;DHT22;683;48.738;9.226;2022-09-21T02:46:48;4.50;99.90
1379;DHT22;683;48.738;9.226;2022-09-21T02:49:20;4.50;99.90
1379;DHT22;683;48.738;9.226;2022-09-21T02:51:51;4.50;99.90
1379;DHT22;683;48.738;9.226;2022-09-21T02:54:23;4.50;99.90
1379;DHT22;683;48.738;9.226;2022-09-21T02:56:52;4.50;99.90
1379;DHT22;683;48.738;9.226;2022-09-21T02:59:21;4.50;99.90
1379;DHT22;683;48.738;9.226;2022-09-21T03:01:51;4.50;99.90
1379;DHT22;683;48.738;9.226;2022-09-21T03:04:19;4.50;99.90
1379;DHT22;683;48.738;9.226;2022-09-21T03:06:46;4.60;99.90
1379;DHT22;683;48.738;9.226;2022-09-21T03:09:13;4.60;99.90
1379;DHT22;683;48.738;9.226;2022-09-21T03:11:41;4.70;99.90
1379;DHT22;683;48.738;9.226;2022-09-21T03:14:08;4.70;99.90
1379;DHT22;683;48.738;9.226;2022-09-21T03:16:36;4.70;99.90
1379;DHT22;683;48.738;9.226;2022-09-21T03:19:05;4.70;99.90
1379;DHT22;683;48.738;9.226;2022-09-21T03:21:33;4.60;99.90
1379;DHT22;683;48.738;9.226;2022-09-21T03:24:00;4.60;99.90
1379;DHT22;683;48.738;9.226;2022-09-21T03:26:28;4.60;99.90
1379;DHT22;683;48.738;9.226;2022-09-21T03:28:55;4.60;99.90
1379;DHT22;683;48.738;9.226;2022-09-21T03:31:23;4.60;99.90
1379;DHT22;683;48.738;9.226;2022-09-21T03:33:50;4.70;99.90
1379;DHT22;683;48.738;9.226;2022-09-21T03:36:19;4.70;99.90
1379;DHT22;683;48.738;9.226;2022-09-21T03:38:46;4.60;99.90
1379;DHT22;683;48.738;9.226;2022-09-21T03:41:14;4.60;99.90
1379;DHT22;683;48.738;9.226;2022-09-21T03:43:41;4.60;99.90
1379;DHT22;683;48.738;9.226;2022-09-21T03:46:09;4.60;99.90
1379;DHT22;683;48.738;9.226;2022-09-21T03:48:37;4.50;99.90
1379;DHT22;683;48.738;9.226;2022-09-21T03:51:07;4.40;99.90
1379;DHT22;683;48.738;9.226;2022-09-21T03:53:35;4.40;99.90
1379;DHT22;683;48.738;9.226;2022-09-21T03:56:03;4.40;99.90
1379;DHT22;683;48.738;9.226;2022-09-21T03:58:31;4.30;99.90
1379;DHT22;683;48.738;9.226;2022-09-21T04:01:00;4.40;99.90
1379;DHT22;683;48.738;9.226;2022-09-21T04:03:28;4.40;99.90
1379;DHT22;683;48.738;9.226;2022-09-21T04:05:56;4.30;99.90
1379;DHT22;683;48.738;9.226;2022-09-21T04:08:23;4.30;99.90
1379;DHT22;683;48.738;9.226;2022-09-21T04:10:52;4.30;99.90
1379;DHT22;683;48.738;9.226;2022-09-21T04:13:21;4.30;99.90
1379;DHT22;683;48.738;9.226;2022-09-21T04:15:49;4.30;99.90
1379;DHT22;683;48.738;9.226;2022-09-21T04:18:17;4.20;99.90
1379;DHT22;683;48.738;9.226;2022-09-21T04:20:45;4.20;99.90
1379;DHT22;683;48.738;9.226;2022-09-21T04:23:12;4.20;99.90
1379;DHT22;683;48.738;9.226;2022-09-21T04:25:39;4.20;99.90
1379;DHT22;683;48.738;9.226;2022-09-21T04:28:08;4.20;99.90
1379;DHT22;683;48.738;9.226;2022-09-21T04:30:35;4.20;99.90
1379;DHT22;683;48.738;9.226;2022-09-21T04:33:03;4.30;99.90
1379;DHT22;683;48.738;9.226;2022-09-21T04:35:30;4.20;99.90
1379;DHT22;683;48.738;9.226;2022-09-21T04:37:58;4.20;99.90
1379;DHT22;683;48.738;9.226;2022-09-21T04:40:25;4.20;99.90
1379;DHT22;683;48.738;9.226;2022-09-21T04:42:53;4.10;99.90
1379;DHT22;683;48.738;9.226;2022-09-21T04:45:23;4.10;99.90
1379;DHT22;683;48.738;9.226;2022-09-21T04:47:50;4.00;99.90
1379;DHT22;683;48.738;9.226;2022-09-21T04:50:18;4.00;99.90
1379;DHT22;683;48.738;9.226;2022-09-21T04:52:45;4.00;99.90
1379;DHT22;683;48.738;9.226;2022-09-21T04:55:14;4.00;99.90
1379;DHT22;683;48.738;9.226;2022-09-21T04:57:41;3.90;99.90
1379;DHT22;683;48.738;9.226;2022-09-21T05:00:10;3.90;99.90
1379;DHT22;683;48.738;9.226;2022-09-21T05:02:39;3.90;99.90
1379;DHT22;683;48.738;9.226;2022-09-21T05:05:07;3.90;99.90
1379;DHT22;683;48.738;9.226;2022-09-21T05:07:34;3.90;99.90
1379;DHT22;683;48.738;9.226;2022-09-21T05:10:01;4.00;99.90
1379;DHT22;683;48.738;9.226;2022-09-21T05:12:28;4.00;99.90
1379;DHT22;683;48.738;9.226;2022-09-21T05:14:55;4.00;99.90
1379;DHT22;683;48.738;9.226;2022-09-21T05:17:23;4.00;99.90
1379;DHT22;683;48.738;9.226;2022-09-21T05:19:52;4.00;99.90
1379;DHT22;683;48.738;9.226;2022-09-21T05:22:19;4.00;99.90
1379;DHT22;683;48.738;9.226;2022-09-21T05:24:47;4.10;99.90
1379;DHT22;683;48.738;9.226;2022-09-21T05:27:16;4.10;99.90
1379;DHT22;683;48.738;9.226;2022-09-21T05:29:45;4.20;99.90
1379;DHT22;683;48.738;9.226;2022-09-21T05:32:20;4.20;99.90
1379;DHT22;683;48.738;9.226;2022-09-21T05:34:59;4.20;99.90
1379;DHT22;683;48.738;9.226;2022-09-21T05:37:43;4.20;99.90
1379;DHT22;683;48.738;9.226;2022-09-21T05:40:15;4.20;99.90
1379;DHT22;683;48.738;9.226;2022-09-21T05:42:44;4.20;99.90
1379;DHT22;683;48.738;9.226;2022-09-21T05:45:14;4.20;99.90
1379;DHT22;683;48.738;9.226;2022-09-21T05:47:55;4.30;99.90
1379;DHT22;683;48.738;9.226;2022-09-21T05:50:42;4.40;99.90
1379;DHT22;683;48.738;9.226;2022-09-21T05:53:37;4.40;99.90
1379;DHT22;683;48.738;9.226;2022-09-21T05:56:11;4.60;99.90
1379;DHT22;683;48.738;9.226;2022-09-21T05:58:46;4.70;99.90
1379;DHT22;683;48.738;9.226;2022-09-21T06:01:27;4.80;99.90
1379;DHT22;683;48.738;9.226;2022-09-21T06:03:57;4.80;99.90
1379;DHT22;683;48.738;9.226;2022-09-21T06:06:27;4.90;99.90
1379;DHT22;683;48.738;9.226;2022-09-21T06:09:01;5.00;99.90
1379;DHT22;683;48.738;9.226;2022-09-21T06:11:28;5.20;99.90
1379;DHT22;683;48.738;9.226;2022-09-21T06:13:56;5.30;99.90
1379;DHT22;683;48.738;9.226;2022-09-21T06:16:23;5.50;99.90
1379;DHT22;683;48.738;9.226;2022-09-21T06:18:50;5.60;99.90
1379;DHT22;683;48.738;9.226;2022-09-21T06:21:18;5.70;99.90
1379;DHT22;683;48.738;9.226;2022-09-21T06:23:46;5.80;99.90
1379;DHT22;683;48.738;9.226;2022-09-21T06:26:14;6.00;99.90
1379;DHT22;683;48.738;9.226;2022-09-21T06:28:42;6.10;99.90
1379;DHT22;683;48.738;9.226;2022-09-21T06:31:09;6.10;99.90
1379;DHT22;683;48.738;9.226;2022-09-21T06:33:37;6.20;99.90
1379;DHT22;683;48.738;9.226;2022-09-21T06:36:06;6.20;99.90
1379;DHT22;683;48.738;9.226;2022-09-21T06:38:34;6.20;99.90
1379;DHT22;683;48.738;9.226;2022-09-21T06:41:04;6.40;99.90
1379;DHT22;683;48.738;9.226;2022-09-21T06:43:32;6.50;99.90
1379;DHT22;683;48.738;9.226;2022-09-21T06:46:00;6.60;99.90
1379;DHT22;683;48.738;9.226;2022-09-21T06:48:29;6.70;99.90
1379;DHT22;683;48.738;9.226;2022-09-21T06:50:59;6.80;99.90
1379;DHT22;683;48.738;9.226;2022-09-21T06:53:27;6.80;99.90
1379;DHT22;683;48.738;9.226;2022-09-21T06:55:59;7.00;99.90
1379;DHT22;683;48.738;9.226;2022-09-21T06:58:30;7.10;99.90
1379;DHT22;683;48.738;9.226;2022-09-21T07:01:06;7.10;99.90
1379;DHT22;683;48.738;9.226;2022-09-21T07:03:35;7.20;99.90
1379;DHT22;683;48.738;9.226;2022-09-21T07:06:02;7.30;99.90
1379;DHT22;683;48.738;9.226;2022-09-21T07:08:30;7.50;99.90
1379;DHT22;683;48.738;9.226;2022-09-21T07:10:58;7.60;99.90
1379;DHT22;683;48.738;9.226;2022-09-21T07:13:25;7.70;99.90
1379;DHT22;683;48.738;9.226;2022-09-21T07:15:54;7.90;99.90
1379;DHT22;683;48.738;9.226;2022-09-21T07:18:22;8.10;99.90
1379;DHT22;683;48.738;9.226;2022-09-21T07:20:50;8.30;99.90
1379;DHT22;683;48.738;9.226;2022-09-21T07:23:18;8.40;99.90
1379;DHT22;683;48.738;9.226;2022-09-21T07:25:48;8.60;99.90
1379;DHT22;683;48.738;9.226;2022-09-21T07:28:19;8.70;99.90
1379;DHT22;683;48.738;9.226;2022-09-21T07:30:47;8.70;99.90
1379;DHT22;683;48.738;9.226;2022-09-21T07:33:16;8.80;99.90
1379;DHT22;683;48.738;9.226;2022-09-21T07:35:50;8.90;99.90
1379;DHT22;683;48.738;9.226;2022-09-21T07:38:18;9.10;99.90
1379;DHT22;683;48.738;9.226;2022-09-21T07:40:45;9.20;99.90
1379;DHT22;683;48.738;9.226;2022-09-21T07:43:12;9.30;99.90
1379;DHT22;683;48.738;9.226;2022-09-21T07:45:40;9.50;99.90
1379;DHT22;683;48.738;9.226;2022-09-21T07:48:07;9.60;99.90
1379;DHT22;683;48.738;9.226;2022-09-21T07:50:36;9.70;99.90
1379;DHT22;683;48.738;9.226;2022-09-21T07:53:04;9.80;99.90
1379;DHT22;683;48.738;9.226;2022-09-21T07:55:31;10.00;99.90
1379;DHT22;683;48.738;9.226;2022-09-21T07:57:58;10.10;99.90
1379;DHT22;683;48.738;9.226;2022-09-21T08:00:43;10.20;99.90
1379;DHT22;683;48.738;9.226;2022-09-21T08:03:11;10.40;99.90
1379;DHT22;683;48.738;9.226;2022-09-21T08:05:44;10.50;99.90
1379;DHT22;683;48.738;9.226;2022-09-21T08:08:11;10.50;99.90
1379;DHT22;683;48.738;9.226;2022-09-21T08:10:40;10.50;99.90
1379;DHT22;683;48.738;9.226;2022-09-21T08:13:07;10.70;99.90
1379;DHT22;683;48.738;9.226;2022-09-21T08:15:35;10.80;99.90
1379;DHT22;683;48.738;9.226;2022-09-21T08:18:03;10.90;99.90
1379;DHT22;683;48.738;9.226;2022-09-21T08:20:32;11.00;99.90
1379;DHT22;683;48.738;9.226;2022-09-21T08:23:01;11.10;99.90
1379;DHT22;683;48.738;9.226;2022-09-21T08:25:29;11.20;99.90
1379;DHT22;683;48.738;9.226;2022-09-21T08:27:57;11.30;99.90
1379;DHT22;683;48.738;9.226;2022-09-21T08:30:25;11.30;99.90
1379;DHT22;683;48.738;9.226;2022-09-21T08:32:56;11.40;99.90
1379;DHT22;683;48.738;9.226;2022-09-21T08:35:26;11.40;99.90
1379;DHT22;683;48.738;9.226;2022-09-21T08:37:54;11.40;99.90
1379;DHT22;683;48.738;9.226;2022-09-21T08:40:23;11.50;99.90
1379;DHT22;683;48.738;9.226;2022-09-21T08:42:56;11.60;99.90
1379;DHT22;683;48.738;9.226;2022-09-21T08:45:31;11.80;99.90
1379;DHT22;683;48.738;9.226;2022-09-21T08:48:02;11.90;99.90
1379;DHT22;683;48.738;9.226;2022-09-21T08:50:36;12.00;99.90
1379;DHT22;683;48.738;9.226;2022-09-21T08:53:09;12.10;99.90
1379;DHT22;683;48.738;9.226;2022-09-21T08:55:39;12.10;99.90
1379;DHT22;683;48.738;9.226;2022-09-21T08:58:19;12.20;99.90
1379;DHT22;683;48.738;9.226;2022-09-21T09:00:48;12.30;99.90
1379;DHT22;683;48.738;9.226;2022-09-21T09:06:29;12.20;99.90
1379;DHT22;683;48.738;9.226;2022-09-21T09:09:24;12.20;99.90
1379;DHT22;683;48.738;9.226;2022-09-21T09:12:14;12.10;99.90
1379;DHT22;683;48.738;9.226;2022-09-21T09:15:02;12.20;99.90
1379;DHT22;683;48.738;9.226;2022-09-21T09:17:49;12.30;99.90
1379;DHT22;683;48.738;9.226;2022-09-21T09:20:20;12.40;99.90
1379;DHT22;683;48.738;9.226;2022-09-21T09:22:55;12.50;99.90
1379;DHT22;683;48.738;9.226;2022-09-21T09:25:26;12.70;99.90
1379;DHT22;683;48.738;9.226;2022-09-21T09:28:11;12.90;99.90
1379;DHT22;683;48.738;9.226;2022-09-21T09:30:41;13.00;99.90
1379;DHT22;683;48.738;9.226;2022-09-21T09:33:13;13.00;99.90
1379;DHT22;683;48.738;9.226;2022-09-21T09:35:46;13.20;99.90
1379;DHT22;683;48.738;9.226;2022-09-21T09:38:20;13.20;98.50
1379;DHT22;683;48.738;9.226;2022-09-21T09:41:11;13.10;99.20
1379;DHT22;683;48.738;9.226;2022-09-21T09:43:54;13.20;98.90
1379;DHT22;683;48.738;9.226;2022-09-21T09:46:31;13.30;99.10
1379;DHT22;683;48.738;9.226;2022-09-21T09:49:14;13.40;97.70
1379;DHT22;683;48.738;9.226;2022-09-21T09:51:44;13.60;99.00
1379;DHT22;683;48.738;9.226;2022-09-21T09:54:15;13.80;98.80
1379;DHT22;683;48.738;9.226;2022-09-21T09:56:43;14.20;98.10
1379;DHT22;683;48.738;9.226;2022-09-21T09:59:20;14.70;95.80
1379;DHT22;683;48.738;9.226;2022-09-21T10:01:58;14.60;95.10
1379;DHT22;683;48.738;9.226;2022-09-21T10:04:26;14.30;95.80
1379;DHT22;683;48.738;9.226;2022-09-21T10:06:54;14.20;96.20
1379;DHT22;683;48.738;9.226;2022-09-21T10:09:26;14.10;96.70
1379;DHT22;683;48.738;9.226;2022-09-21T10:11:57;14.10;95.70
1379;DHT22;683;48.738;9.226;2022-09-21T10:14:30;13.90;95.90
1379;DHT22;683;48.738;9.226;2022-09-21T10:17:03;13.80;96.80
1379;DHT22;683;48.738;9.226;2022-09-21T10:19:31;13.70;96.30
1379;DHT22;683;48.738;9.226;2022-09-21T10:22:00;13.50;97.50
1379;DHT22;683;48.738;9.226;2022-09-21T10:24:30;13.60;96.90
1379;DHT22;683;48.738;9.226;2022-09-21T10:27:04;13.80;97.30
1379;DHT22;683;48.738;9.226;2022-09-21T10:29:41;13.80;96.40
1379;DHT22;683;48.738;9.226;2022-09-21T10:32:20;13.50;96.60
1379;DHT22;683;48.738;9.226;2022-09-21T10:35:14;13.50;97.30
1379;DHT22;683;48.738;9.226;2022-09-21T10:37:44;13.60;97.00
1379;DHT22;683;48.738;9.226;2022-09-21T10:40:27;13.60;96.60
1379;DHT22;683;48.738;9.226;2022-09-21T10:42:57;13.50;97.00
1379;DHT22;683;48.738;9.226;2022-09-21T10:45:28;13.50;96.90
1379;DHT22;683;48.738;9.226;2022-09-21T10:47:57;13.60;97.60
1379;DHT22;683;48.738;9.226;2022-09-21T10:50:27;14.00;96.00
1379;DHT22;683;48.738;9.226;2022-09-21T10:53:00;14.40;95.40
1379;DHT22;683;48.738;9.226;2022-09-21T10:55:29;14.70;94.20
1379;DHT22;683;48.738;9.226;2022-09-21T10:57:57;15.00;93.90
1379;DHT22;683;48.738;9.226;2022-09-21T11:00:30;15.30;92.80
1379;DHT22;683;48.738;9.226;2022-09-21T11:03:33;15.20;92.30
1379;DHT22;683;48.738;9.226;2022-09-21T11:06:08;15.00;91.70
1379;DHT22;683;48.738;9.226;2022-09-21T11:08:42;15.00;92.30
1379;DHT22;683;48.738;9.226;2022-09-21T11:11:23;15.00;91.00
1379;DHT22;683;48.738;9.226;2022-09-21T11:13:53;15.10;93.00
1379;DHT22;683;48.738;9.226;2022-09-21T11:16:28;15.20;91.00
1379;DHT22;683;48.738;9.226;2022-09-21T11:19:10;15.40;91.10
1379;DHT22;683;48.738;9.226;2022-09-21T11:21:46;15.60;91.30
1379;DHT22;683;48.738;9.226;2022-09-21T11:24:23;15.70;90.40
1379;DHT22;683;48.738;9.226;2022-09-21T11:26:56;15.70;88.20
1379;DHT22;683;48.738;9.226;2022-09-21T11:29:35;15.70;88.60
1379;DHT22;683;48.738;9.226;2022-09-21T11:32:13;16.10;90.50
1379;DHT22;683;48.738;9.226;2022-09-21T11:35:03;16.20;88.50
1379;DHT22;683;48.738;9.226;2022-09-21T11:37:47;16.40;88.60
1379;DHT22;683;48.738;9.226;2022-09-21T11:40:36;16.60;86.30
1379;DHT22;683;48.738;9.226;2022-09-21T11:43:15;16.40;85.90
1379;DHT22;683;48.738;9.226;2022-09-21T11:45:51;16.60;87.50
1379;DHT22;683;48.738;9.226;2022-09-21T11:48:34;16.90;86.60
1379;DHT22;683;48.738;9.226;2022-09-21T11:51:19;17.00;85.00
1379;DHT22;683;48.738;9.226;2022-09-21T11:54:08;16.90;83.30
1379;DHT22;683;48.738;9.226;2022-09-21T11:56:46;16.80;84.40
1379;DHT22;683;48.738;9.226;2022-09-21T11:59:34;16.80;84.20
1379;DHT22;683;48.738;9.226;2022-09-21T12:02:35;17.00;83.20
1379;DHT22;683;48.738;9.226;2022-09-21T12:05:11;17.10;82.80
1379;DHT22;683;48.738;9.226;2022-09-21T12:08:03;17.40;81.00
1379;DHT22;683;48.738;9.226;2022-09-21T12:10:38;17.60;78.50
1379;DHT22;683;48.738;9.226;2022-09-21T12:13:18;17.90;81.40
1379;DHT22;683;48.738;9.226;2022-09-21T12:15:56;17.70;78.00
1379;DHT22;683;48.738;9.226;2022-09-21T12:18:32;17.40;78.70
1379;DHT22;683;48.738;9.226;2022-09-21T12:21:06;17.60;77.90
1379;DHT22;683;48.738;9.226;2022-09-21T12:23:41;17.90;78.00
1379;DHT22;683;48.738;9.226;2022-09-21T12:26:10;18.30;77.90
1379;DHT22;683;48.738;9.226;2022-09-21T12:28:43;18.70;74.00
1379;DHT22;683;48.738;9.226;2022-09-21T12:31:15;19.50;72.20
1379;DHT22;683;48.738;9.226;2022-09-21T12:33:48;20.00;70.10
1379;DHT22;683;48.738;9.226;2022-09-21T12:36:18;20.70;67.40
1379;DHT22;683;48.738;9.226;2022-09-21T12:38:49;20.80;67.40
1379;DHT22;683;48.738;9.226;2022-09-21T12:41:23;21.30;66.50
1379;DHT22;683;48.738;9.226;2022-09-21T12:43:57;22.10;64.00
1379;DHT22;683;48.738;9.226;2022-09-21T12:46:31;22.80;59.30
1379;DHT22;683;48.738;9.226;2022-09-21T12:49:07;23.00;58.90
1379;DHT22;683;48.738;9.226;2022-09-21T12:51:41;23.60;58.40
1379;DHT22;683;48.738;9.226;2022-09-21T12:54:18;23.90;56.40
1379;DHT22;683;48.738;9.226;2022-09-21T12:56:54;24.70;55.30
1379;DHT22;683;48.738;9.226;2022-09-21T12:59:29;25.10;53.50
1379;DHT22;683;48.738;9.226;2022-09-21T13:02:11;24.50;53.90
1379;DHT22;683;48.738;9.226;2022-09-21T13:04:52;24.50;53.20
1379;DHT22;683;48.738;9.226;2022-09-21T13:07:30;25.30;52.90
1379;DHT22;683;48.738;9.226;2022-09-21T13:10:14;25.90;50.20
1379;DHT22;683;48.738;9.226;2022-09-21T13:12:43;26.70;49.80
1379;DHT22;683;48.738;9.226;2022-09-21T13:15:18;27.50;48.50
1379;DHT22;683;48.738;9.226;2022-09-21T13:17:57;26.70;47.90
1379;DHT22;683;48.738;9.226;2022-09-21T13:20:26;26.10;47.90
1379;DHT22;683;48.738;9.226;2022-09-21T13:22:58;25.80;48.40
1379;DHT22;683;48.738;9.226;2022-09-21T13:25:31;24.90;48.70
1379;DHT22;683;48.738;9.226;2022-09-21T13:28:05;25.60;50.40
1379;DHT22;683;48.738;9.226;2022-09-21T13:30:38;27.00;47.80
1379;DHT22;683;48.738;9.226;2022-09-21T13:33:30;27.30;45.40
1379;DHT22;683;48.738;9.226;2022-09-21T13:36:06;27.40;44.10
1379;DHT22;683;48.738;9.226;2022-09-21T13:38:57;28.00;43.80
1379;DHT22;683;48.738;9.226;2022-09-21T13:41:30;28.60;43.00
1379;DHT22;683;48.738;9.226;2022-09-21T13:44:03;28.60;43.00
1379;DHT22;683;48.738;9.226;2022-09-21T13:46:58;29.40;40.70
1379;DHT22;683;48.738;9.226;2022-09-21T13:49:31;29.70;38.60
1379;DHT22;683;48.738;9.226;2022-09-21T13:52:02;29.10;39.70
1379;DHT22;683;48.738;9.226;2022-09-21T13:54:32;29.50;41.00
1379;DHT22;683;48.738;9.226;2022-09-21T13:57:06;29.30;39.20
1379;DHT22;683;48.738;9.226;2022-09-21T13:59:42;26.90;41.90
1379;DHT22;683;48.738;9.226;2022-09-21T14:02:23;24.80;45.90
1379;DHT22;683;48.738;9.226;2022-09-21T14:04:51;23.70;48.10
1379;DHT22;683;48.738;9.226;2022-09-21T14:07:19;22.70;49.00
1379;DHT22;683;48.738;9.226;2022-09-21T14:09:55;21.20;49.50
1379;DHT22;683;48.738;9.226;2022-09-21T14:12:26;19.90;51.60
1379;DHT22;683;48.738;9.226;2022-09-21T14:15:22;19.30;53.00
1379;DHT22;683;48.738;9.226;2022-09-21T14:21:14;18.30;55.30
1379;DHT22;683;48.738;9.226;2022-09-21T14:27:03;17.60;57.80
1379;DHT22;683;48.738;9.226;2022-09-21T14:29:43;17.40;57.80
1379;DHT22;683;48.738;9.226;2022-09-21T14:32:15;17.30;58.20
1379;DHT22;683;48.738;9.226;2022-09-21T14:34:46;17.70;58.00
1379;DHT22;683;48.738;9.226;2022-09-21T14:37:24;17.80;57.90
1379;DHT22;683;48.738;9.226;2022-09-21T14:39:54;19.50;57.00
1379;DHT22;683;48.738;9.226;2022-09-21T14:42:24;21.10;53.60
1379;DHT22;683;48.738;9.226;2022-09-21T14:44:57;22.50;50.50
1379;DHT22;683;48.738;9.226;2022-09-21T14:47:40;23.90;49.50
1379;DHT22;683;48.738;9.226;2022-09-21T14:50:23;24.40;46.60
1379;DHT22;683;48.738;9.226;2022-09-21T14:53:07;24.10;46.70
1379;DHT22;683;48.738;9.226;2022-09-21T14:55:58;23.60;47.20
1379;DHT22;683;48.738;9.226;2022-09-21T14:58:37;23.40;47.40
1379;DHT22;683;48.738;9.226;2022-09-21T15:01:34;22.40;49.00
1379;DHT22;683;48.738;9.226;2022-09-21T15:04:23;20.80;50.30
1379;DHT22;683;48.738;9.226;2022-09-21T15:07:02;19.40;51.60
1379;DHT22;683;48.738;9.226;2022-09-21T15:10:10;18.20;54.20
1379;DHT22;683;48.738;9.226;2022-09-21T15:13:01;17.40;54.50
1379;DHT22;683;48.738;9.226;2022-09-21T15:15:38;17.00;55.70
1379;DHT22;683;48.738;9.226;2022-09-21T15:18:15;16.80;57.30
1379;DHT22;683;48.738;9.226;2022-09-21T15:20:53;16.60;58.60
1379;DHT22;683;48.738;9.226;2022-09-21T15:23:27;16.50;58.80
1379;DHT22;683;48.738;9.226;2022-09-21T15:25:58;16.50;59.00
1379;DHT22;683;48.738;9.226;2022-09-21T15:28:32;16.40;59.20
1379;DHT22;683;48.738;9.226;2022-09-21T15:31:00;16.30;58.90
1379;DHT22;683;48.738;9.226;2022-09-21T15:33:30;16.20;58.30
1379;DHT22;683;48.738;9.226;2022-09-21T15:36:00;15.90;58.30
1379;DHT22;683;48.738;9.226;2022-09-21T15:38:29;15.80;59.40
1379;DHT22;683;48.738;9.226;2022-09-21T15:40:57;15.70;58.10
1379;DHT22;683;48.738;9.226;2022-09-21T15:43:24;15.50;58.80
1379;DHT22;683;48.738;9.226;2022-09-21T15:45:53;15.40;60.30
1379;DHT22;683;48.738;9.226;2022-09-21T15:48:24;15.30;61.00
1379;DHT22;683;48.738;9.226;2022-09-21T15:50:57;15.30;60.20
1379;DHT22;683;48.738;9.226;2022-09-21T15:53:28;15.20;59.80
1379;DHT22;683;48.738;9.226;2022-09-21T15:55:58;15.10;60.10
1379;DHT22;683;48.738;9.226;2022-09-21T15:58:31;15.10;60.70
1379;DHT22;683;48.738;9.226;2022-09-21T16:01:00;15.00;61.50
1379;DHT22;683;48.738;9.226;2022-09-21T16:03:28;14.90;61.20
1379;DHT22;683;48.738;9.226;2022-09-21T16:05:57;14.80;62.00
1379;DHT22;683;48.738;9.226;2022-09-21T16:08:30;14.70;62.70
1379;DHT22;683;48.738;9.226;2022-09-21T16:11:14;14.60;63.50
1379;DHT22;683;48.738;9.226;2022-09-21T16:13:43;14.60;62.70
1379;DHT22;683;48.738;9.226;2022-09-21T16:16:28;14.50;63.70
1379;DHT22;683;48.738;9.226;2022-09-21T16:18:56;14.40;62.70
1379;DHT22;683;48.738;9.226;2022-09-21T16:21:27;14.40;63.20
1379;DHT22;683;48.738;9.226;2022-09-21T16:24:07;14.30;62.60
1379;DHT22;683;48.738;9.226;2022-09-21T16:26:38;14.30;62.40
1379;DHT22;683;48.738;9.226;2022-09-21T16:29:17;14.20;63.50
1379;DHT22;683;48.738;9.226;2022-09-21T16:31:45;14.10;63.40
1379;DHT22;683;48.738;9.226;2022-09-21T16:34:21;14.10;63.50
1379;DHT22;683;48.738;9.226;2022-09-21T16:36:52;14.00;64.60
1379;DHT22;683;48.738;9.226;2022-09-21T16:39:19;13.90;64.30
1379;DHT22;683;48.738;9.226;2022-09-21T16:41:51;13.80;64.90
1379;DHT22;683;48.738;9.226;2022-09-21T16:44:20;13.70;65.50
1379;DHT22;683;48.738;9.226;2022-09-21T16:46:53;13.70;65.90
1379;DHT22;683;48.738;9.226;2022-09-21T16:49:21;13.60;66.40
1379;DHT22;683;48.738;9.226;2022-09-21T16:51:52;13.50;66.20
1379;DHT22;683;48.738;9.226;2022-09-21T16:54:23;13.40;67.40
1379;DHT22;683;48.738;9.226;2022-09-21T16:56:54;13.30;67.80
1379;DHT22;683;48.738;9.226;2022-09-21T16:59:23;13.30;68.50
1379;DHT22;683;48.738;9.226;2022-09-21T17:01:52;13.10;68.80
1379;DHT22;683;48.738;9.226;2022-09-21T17:04:21;13.10;69.20
1379;DHT22;683;48.738;9.226;2022-09-21T17:06:49;13.00;69.50
1379;DHT22;683;48.738;9.226;2022-09-21T17:09:21;12.80;69.20
1379;DHT22;683;48.738;9.226;2022-09-21T17:11:49;12.80;69.80
1379;DHT22;683;48.738;9.226;2022-09-21T17:14:17;12.70;69.60